Time;durP1;ratioP1;P1;durP2;ratioP2;P2;SDS_P1;SDS_P2;PMS_P1;PMS_P2;Temp;Humidity;BMP_temperature;BMP_pressure;BME280_temperature;BME280_humidity;BME280_pressure;Samples;Min_cycle;Max_cycle;Signal;HPM_P1;HPM_P2
2021/08/26 00:07:31;;;;;;;2.10;1.50;;;;;;;15.24;76.75;99107.84;115446;1199;137821;-53
2021/08/26 00:10:02;;;;;;;2.00;1.60;;;;;;;15.25;76.67;99108.66;115564;1204;23066;-54
2021/08/26 00:12:30;;;;;;;1.90;1.60;;;;;;;15.25;76.78;99105.86;115424;1203;137676;-53
2021/08/26 00:15:00;;;;;;;2.60;1.50;;;;;;;15.26;76.85;99108.97;115478;1204;22373;-54
2021/08/26 00:17:28;;;;;;;2.30;1.60;;;;;;;15.27;76.70;99115.44;115508;1203;23343;-54
2021/08/26 00:19:56;;;;;;;3.40;1.90;;;;;;;15.25;76.66;99114.52;115342;1201;139336;-54
2021/08/26 00:22:24;;;;;;;2.50;1.60;;;;;;;15.26;76.64;99115.02;115544;1209;22436;-54
2021/08/26 00:25:04;;;;;;;4.10;2.10;;;;;;;15.25;76.55;99113.32;115383;1200;138987;-54
2021/08/26 00:27:32;;;;;;;2.90;2.00;;;;;;;15.24;76.67;99106.42;115542;1204;22245;-54
2021/08/26 00:30:00;;;;;;;2.10;1.50;;;;;;;15.22;76.65;99104.84;115398;1202;140437;-54
2021/08/26 00:32:28;;;;;;;2.00;1.70;;;;;;;15.24;76.57;99104.61;115500;1204;22258;-55
2021/08/26 00:34:56;;;;;;;1.90;1.70;;;;;;;15.24;76.60;99101.41;115469;1204;22997;-55
2021/08/26 00:37:24;;;;;;;2.20;1.60;;;;;;;15.25;76.56;99098.55;115427;1199;138796;-55
2021/08/26 00:39:52;;;;;;;1.50;1.40;;;;;;;15.25;76.50;99103.11;115505;1204;23384;-55
2021/08/26 00:42:21;;;;;;;1.40;1.30;;;;;;;15.24;76.51;99100.65;115378;1204;138919;-55
2021/08/26 00:44:49;;;;;;;1.70;1.60;;;;;;;15.24;76.55;99103.84;115505;1204;22354;-54
2021/08/26 00:47:17;;;;;;;1.60;1.40;;;;;;;15.22;76.49;99102.83;115558;1204;22317;-55
2021/08/26 00:49:49;;;;;;;2.20;1.50;;;;;;;15.22;76.37;99106.06;115356;1201;137791;-54
2021/08/26 00:52:18;;;;;;;1.60;1.50;;;;;;;15.21;76.44;99110.67;115506;1210;22337;-54
2021/08/26 00:54:46;;;;;;;2.50;1.80;;;;;;;15.23;76.48;99113.08;115388;1199;138683;-54
2021/08/26 00:58:57;;;;;;;2.70;1.80;;;;;;;15.26;76.51;99108.90;109895;1226;544878;-53
2021/08/26 01:01:29;;;;;;;2.00;1.80;;;;;;;15.26;76.41;99110.63;110917;1205;137502;-55
2021/08/26 01:04:08;;;;;;;2.20;1.70;;;;;;;15.27;76.38;99113.52;115350;1201;22313;-55
2021/08/26 01:07:08;;;;;;;1.90;1.60;;;;;;;15.27;76.32;99117.20;115173;1204;137156;-56
2021/08/26 01:09:44;;;;;;;2.10;1.50;;;;;;;15.27;76.48;99116.86;115248;1209;23482;-55
2021/08/26 01:12:14;;;;;;;2.70;1.70;;;;;;;15.25;76.35;99103.44;115101;1205;137368;-55
2021/08/26 01:14:42;;;;;;;1.90;1.60;;;;;;;15.26;76.40;99103.27;115257;1209;22356;-56
2021/08/26 01:17:20;;;;;;;1.50;1.40;;;;;;;15.26;76.52;99103.32;115206;1208;22319;-55
2021/08/26 01:19:49;;;;;;;2.30;1.40;;;;;;;15.26;76.52;99110.40;115168;1204;138106;-55
2021/08/26 01:22:20;;;;;;;4.10;1.70;;;;;;;15.26;76.55;99112.33;115304;1208;22296;-55
2021/08/26 01:25:04;;;;;;;2.30;1.50;;;;;;;15.25;76.52;99112.16;115125;1204;137810;-55
2021/08/26 01:27:35;;;;;;;2.60;1.90;;;;;;;15.24;76.57;99115.52;115311;1209;22890;-55
2021/08/26 01:30:04;;;;;;;2.00;1.80;;;;;;;15.24;76.58;99111.90;115178;1205;138363;-55
2021/08/26 01:32:32;;;;;;;2.40;2.10;;;;;;;15.24;76.57;99113.45;115278;1208;22345;-55
2021/08/26 01:35:02;;;;;;;2.50;1.90;;;;;;;15.23;76.58;99109.94;115286;1207;22321;-55
2021/08/26 01:37:30;;;;;;;3.80;1.90;;;;;;;15.23;76.68;99109.17;115257;1205;137335;-55
2021/08/26 01:39:58;;;;;;;2.00;1.80;;;;;;;15.22;76.61;99110.29;113731;1215;24035;-55
2021/08/26 01:42:26;;;;;;;2.40;1.80;;;;;;;15.21;76.65;99113.36;110692;1205;137457;-54
2021/08/26 01:44:55;;;;;;;2.00;1.80;;;;;;;15.19;76.96;99114.93;110933;1215;24035;-54
2021/08/26 01:47:23;;;;;;;3.20;2.10;;;;;;;15.19;77.08;99108.40;115128;1208;23165;-55
2021/08/26 01:49:52;;;;;;;3.80;2.00;;;;;;;15.19;77.16;99098.58;115094;1205;138159;-55
2021/08/26 01:52:21;;;;;;;2.90;1.90;;;;;;;15.18;77.16;99099.30;115295;1208;22298;-55
2021/08/26 01:54:53;;;;;;;3.00;2.00;;;;;;;15.16;77.21;99098.99;115155;1207;137293;-55
2021/08/26 01:57:25;;;;;;;4.20;1.70;;;;;;;15.16;77.45;99095.92;115269;1210;22397;-55
2021/08/26 01:59:53;;;;;;;4.30;1.70;;;;;;;15.16;77.57;99093.73;115119;1206;140420;-54
2021/08/26 02:02:21;;;;;;;2.00;1.80;;;;;;;15.16;77.49;99087.31;115245;1208;22215;-53
2021/08/26 02:04:49;;;;;;;3.80;1.90;;;;;;;15.14;77.63;99086.80;115290;1208;23135;-53
2021/08/26 02:07:18;;;;;;;5.10;1.90;;;;;;;15.14;77.68;99087.48;115157;1204;138446;-53
2021/08/26 02:09:46;;;;;;;2.70;1.90;;;;;;;15.12;77.76;99083.00;115266;1208;22320;-54
2021/08/26 02:12:14;;;;;;;7.20;1.90;;;;;;;15.11;77.84;99084.72;115142;1206;138931;-54
2021/08/26 02:14:55;;;;;;;4.00;1.90;;;;;;;15.10;77.97;99077.22;115293;1208;22291;-54
2021/08/26 02:17:23;;;;;;;5.30;2.10;;;;;;;15.09;77.93;99081.52;115156;1216;22343;-54
2021/08/26 02:19:51;;;;;;;4.70;2.30;;;;;;;15.07;77.92;99075.44;115167;1205;137632;-54
2021/08/26 02:22:19;;;;;;;3.50;2.30;;;;;;;15.08;78.03;99072.52;115301;1211;22270;-54
2021/08/26 02:24:47;;;;;;;8.60;2.60;;;;;;;15.08;78.06;99071.70;115126;1204;137799;-54
2021/08/26 02:27:16;;;;;;;5.30;2.40;;;;;;;15.09;78.22;99073.89;115302;1208;23628;-54
2021/08/26 02:29:44;;;;;;;3.70;2.40;;;;;;;15.09;78.38;99072.13;115315;1208;22311;-54
2021/08/26 02:32:12;;;;;;;4.70;2.50;;;;;;;15.07;78.35;99070.50;115159;1205;137729;-54
2021/08/26 02:34:40;;;;;;;3.20;2.30;;;;;;;15.05;78.38;99073.88;115244;1216;22380;-54
2021/08/26 02:37:08;;;;;;;8.10;2.60;;;;;;;15.02;78.40;99075.84;115150;1205;138253;-55
2021/08/26 02:39:36;;;;;;;5.20;2.70;;;;;;;15.00;78.61;99075.56;115284;1208;22257;-54
2021/08/26 02:42:04;;;;;;;11.60;2.70;;;;;;;14.99;78.74;99074.33;115209;1205;137641;-54
2021/08/26 02:44:32;;;;;;;8.80;3.80;;;;;;;14.99;78.79;99074.81;115185;1208;22341;-54
2021/08/26 02:47:00;;;;;;;12.60;2.60;;;;;;;14.98;78.88;99069.95;115257;1209;22317;-53
2021/08/26 02:49:28;;;;;;;7.70;2.60;;;;;;;14.99;78.91;99068.61;115193;1205;137761;-54
2021/08/26 02:51:56;;;;;;;11.20;2.70;;;;;;;15.00;78.90;99071.62;115265;1208;22312;-54
2021/08/26 02:54:24;;;;;;;2.80;1.90;;;;;;;15.00;79.02;99070.08;115118;1205;139139;-54
2021/08/26 02:56:52;;;;;;;10.70;2.80;;;;;;;15.01;78.94;99068.14;115237;1215;22275;-54
2021/08/26 02:59:20;;;;;;;8.80;2.90;;;;;;;15.01;79.08;99067.40;115244;1215;22871;-54
2021/08/26 03:01:48;;;;;;;6.90;2.70;;;;;;;15.02;78.90;99062.08;115128;1206;137859;-54
2021/08/26 03:04:16;;;;;;;3.20;2.30;;;;;;;15.01;78.86;99058.75;115302;1213;22282;-54
2021/08/26 03:06:44;;;;;;;6.70;2.60;;;;;;;14.99;78.86;99054.06;115147;1210;137331;-54
2021/08/26 03:09:13;;;;;;;5.10;2.50;;;;;;;15.00;78.98;99055.02;115310;1208;22384;-55
2021/08/26 03:11:42;;;;;;;10.10;3.00;;;;;;;14.99;79.09;99055.50;115233;1209;22381;-55
2021/08/26 03:14:12;;;;;;;10.90;2.70;;;;;;;14.99;79.24;99058.02;115119;1206;137601;-55
2021/08/26 03:16:40;;;;;;;6.00;2.90;;;;;;;14.98;79.40;99062.92;115258;1215;23186;-55
2021/08/26 03:19:08;;;;;;;6.20;2.90;;;;;;;14.98;79.42;99070.16;115145;1205;137540;-54
2021/08/26 03:21:37;;;;;;;7.20;2.70;;;;;;;14.97;79.44;99070.35;115121;1210;22386;-53
2021/08/26 03:24:05;;;;;;;8.70;2.80;;;;;;;14.96;79.65;99067.77;115180;1205;137490;-53
2021/08/26 03:26:33;;;;;;;5.10;3.10;;;;;;;14.96;79.60;99062.46;115254;1209;22335;-53
2021/08/26 03:29:01;;;;;;;4.10;2.60;;;;;;;14.96;79.57;99059.00;115350;1207;22219;-53
2021/08/26 03:31:29;;;;;;;4.30;2.90;;;;;;;14.96;79.75;99058.99;115204;1204;137776;-53
2021/08/26 03:33:57;;;;;;;5.80;3.00;;;;;;;14.97;79.83;99057.78;115355;1207;22290;-53
2021/08/26 03:36:28;;;;;;;3.00;2.60;;;;;;;14.98;79.84;99062.77;115247;1204;139010;-54
2021/08/26 03:38:56;;;;;;;5.10;3.20;;;;;;;14.98;79.82;99061.16;115407;1208;22352;-53
2021/08/26 03:41:24;;;;;;;4.90;3.60;;;;;;;14.97;79.82;99060.73;115321;1208;22362;-54
2021/08/26 03:43:54;;;;;;;7.80;3.80;;;;;;;14.96;79.85;99061.85;115192;1205;137324;-53
2021/08/26 03:46:22;;;;;;;5.90;3.20;;;;;;;14.97;79.86;99064.70;115355;1209;22314;-53
2021/08/26 03:48:51;;;;;;;4.90;3.20;;;;;;;14.98;79.87;99069.77;115218;1204;137499;-53
2021/08/26 03:51:19;;;;;;;5.00;3.20;;;;;;;14.98;79.78;99065.48;115198;1207;22266;-53
2021/08/26 03:53:47;;;;;;;3.20;2.80;;;;;;;14.98;79.77;99062.48;115335;1207;22238;-53
2021/08/26 03:56:15;;;;;;;4.70;2.90;;;;;;;14.97;79.84;99059.05;115261;1204;137237;-53
2021/08/26 03:58:43;;;;;;;5.10;2.70;;;;;;;14.97;79.72;99061.46;115358;1207;23329;-54
2021/08/26 04:01:11;;;;;;;6.40;2.90;;;;;;;14.97;79.80;99063.05;115270;1203;138478;-53
2021/08/26 04:03:40;;;;;;;3.30;2.70;;;;;;;14.97;79.83;99063.31;115397;1208;22250;-54
2021/08/26 04:06:08;;;;;;;4.80;2.90;;;;;;;14.98;79.80;99054.59;115299;1203;140815;-53
2021/08/26 04:08:37;;;;;;;4.70;3.10;;;;;;;14.99;79.80;99057.37;115336;1206;23049;-53
2021/08/26 04:11:05;;;;;;;5.70;2.90;;;;;;;14.98;79.78;99055.46;115379;1206;22267;-53
2021/08/26 04:13:36;;;;;;;3.30;2.90;;;;;;;14.99;79.74;99056.92;115203;1203;138603;-53
2021/08/26 04:16:12;;;;;;;4.30;3.20;;;;;;;15.00;79.86;99063.66;115377;1207;22261;-53
2021/08/26 04:18:42;;;;;;;8.50;2.70;;;;;;;15.01;79.65;99059.02;115256;1204;138817;-53
2021/08/26 04:21:10;;;;;;;3.90;2.70;;;;;;;15.00;79.71;99048.83;115247;1207;22361;-53
2021/08/26 04:23:39;;;;;;;3.20;2.40;;;;;;;15.01;79.78;99050.84;115200;1207;22304;-53
2021/08/26 04:26:07;;;;;;;5.30;3.00;;;;;;;15.03;79.86;99050.70;115154;1205;137411;-53
2021/08/26 04:28:35;;;;;;;3.90;2.80;;;;;;;15.04;79.83;99045.91;115334;1208;22324;-53
2021/08/26 04:31:03;;;;;;;3.90;3.00;;;;;;;15.04;79.83;99043.66;115292;1204;138008;-53
2021/08/26 04:33:32;;;;;;;4.00;2.70;;;;;;;15.08;79.88;99043.27;115379;1207;22289;-52
2021/08/26 04:36:00;;;;;;;5.00;2.90;;;;;;;15.11;79.75;99043.29;115215;1204;140183;-53
2021/08/26 04:38:28;;;;;;;3.70;2.70;;;;;;;15.11;79.58;99041.75;115283;1207;22318;-52
2021/08/26 04:40:57;;;;;;;3.40;3.10;;;;;;;15.12;79.50;99050.25;115335;1208;22264;-53
2021/08/26 04:43:25;;;;;;;7.20;2.80;;;;;;;15.12;79.57;99043.38;115296;1205;137631;-53
2021/08/26 04:45:53;;;;;;;3.80;2.90;;;;;;;15.12;79.53;99043.27;115239;1207;22298;-52
2021/08/26 04:48:21;;;;;;;3.80;2.80;;;;;;;15.13;79.66;99050.73;115262;1205;138590;-53
2021/08/26 04:50:50;;;;;;;4.50;4.00;;;;;;;15.13;79.75;99044.95;115305;1207;23583;-54
2021/08/26 04:53:18;;;;;;;8.20;3.60;;;;;;;15.14;79.81;99049.23;115275;1207;22451;-53
2021/08/26 04:55:46;;;;;;;14.50;5.20;;;;;;;15.15;79.80;99044.47;115259;1205;137569;-54
2021/08/26 04:58:14;;;;;;;8.00;5.20;;;;;;;15.15;79.76;99049.13;115395;1208;22125;-52
2021/08/26 05:00:42;;;;;;;6.30;5.10;;;;;;;15.14;79.69;99048.55;115231;1205;138055;-54
2021/08/26 05:03:10;;;;;;;7.50;4.40;;;;;;;15.16;79.71;99046.42;115193;1207;22343;-53
2021/08/26 05:05:41;;;;;;;8.90;4.20;;;;;;;15.17;79.80;99049.63;115379;1214;22104;-54
2021/08/26 05:08:09;;;;;;;6.30;3.50;;;;;;;15.18;79.65;99044.27;115270;1205;138149;-54
2021/08/26 05:10:38;;;;;;;5.90;3.60;;;;;;;15.19;79.76;99046.60;115377;1214;22454;-54
2021/08/26 05:13:07;;;;;;;9.30;4.00;;;;;;;15.21;79.82;99048.48;115194;1204;139187;-54
2021/08/26 05:15:36;;;;;;;7.90;4.30;;;;;;;15.23;79.87;99045.67;115422;1208;22352;-54
2021/08/26 05:18:05;;;;;;;7.70;3.70;;;;;;;15.25;79.77;99046.63;115220;1205;138564;-54
2021/08/26 05:20:35;;;;;;;5.70;3.10;;;;;;;15.24;79.71;99046.46;115379;1207;22450;-54
2021/08/26 05:23:03;;;;;;;4.40;3.70;;;;;;;15.25;79.77;99047.50;115270;1207;22392;-54
2021/08/26 05:25:35;;;;;;;6.40;3.30;;;;;;;15.27;79.62;99045.00;115205;1203;137908;-54
2021/08/26 05:28:03;;;;;;;6.70;4.10;;;;;;;15.28;79.53;99046.91;115255;1214;22329;-54
2021/08/26 05:30:31;;;;;;;6.20;4.00;;;;;;;15.27;79.45;99050.16;115150;1204;139033;-53
2021/08/26 05:32:59;;;;;;;6.10;4.00;;;;;;;15.27;79.45;99050.38;115388;1207;22419;-53
2021/08/26 05:35:28;;;;;;;6.50;4.00;;;;;;;15.26;79.45;99050.11;115389;1208;23390;-53
2021/08/26 05:37:56;;;;;;;9.50;4.80;;;;;;;15.26;79.48;99044.96;115240;1204;138347;-53
2021/08/26 05:40:24;;;;;;;9.10;4.10;;;;;;;15.28;79.42;99048.39;115332;1206;22344;-54
2021/08/26 05:42:52;;;;;;;10.10;4.40;;;;;;;15.30;79.50;99044.21;115268;1208;137801;-53
2021/08/26 05:45:20;;;;;;;8.50;4.00;;;;;;;15.33;79.51;99043.57;115359;1214;23053;-53
2021/08/26 05:47:54;;;;;;;5.40;3.90;;;;;;;15.35;79.63;99046.88;115333;1208;22317;-53
2021/08/26 05:50:23;;;;;;;9.70;4.60;;;;;;;15.38;79.62;99045.73;115320;1204;137765;-53
2021/08/26 05:52:51;;;;;;;9.40;4.70;;;;;;;15.39;79.48;99040.90;115324;1208;22313;-53
2021/08/26 05:55:20;;;;;;;5.70;3.90;;;;;;;15.39;79.30;99039.35;115260;1204;137794;-53
2021/08/26 05:57:48;;;;;;;6.70;4.00;;;;;;;15.40;79.26;99038.34;115362;1207;22357;-53
2021/08/26 06:00:17;;;;;;;9.20;5.10;;;;;;;15.42;79.38;99036.48;115295;1204;137964;-56
2021/08/26 06:02:46;;;;;;;8.90;4.20;;;;;;;15.43;79.20;99032.36;115309;1208;22235;-53
2021/08/26 06:05:14;;;;;;;8.90;5.20;;;;;;;15.45;78.86;99032.70;115362;1208;22284;-53
2021/08/26 06:07:43;;;;;;;9.10;4.80;;;;;;;15.44;78.81;99029.59;115278;1204;138140;-53
2021/08/26 06:10:11;;;;;;;5.00;4.20;;;;;;;15.44;78.94;99025.69;115358;1208;23007;-53
2021/08/26 06:12:40;;;;;;;10.40;4.90;;;;;;;15.46;79.05;99028.62;115243;1204;138419;-53
2021/08/26 06:15:09;;;;;;;16.60;5.40;;;;;;;15.46;78.68;99025.86;115436;1211;22313;-53
2021/08/26 06:17:37;;;;;;;7.20;4.70;;;;;;;15.46;78.79;99028.72;115394;1209;23173;-53
2021/08/26 06:20:09;;;;;;;7.30;4.60;;;;;;;15.45;78.60;99024.41;115250;1205;137819;-53
2021/08/26 06:22:38;;;;;;;7.10;4.50;;;;;;;15.46;78.68;99028.07;115406;1214;22311;-53
2021/08/26 06:25:07;;;;;;;5.30;3.90;;;;;;;15.45;78.30;99025.95;115275;1204;137968;-53
2021/08/26 06:27:35;;;;;;;5.30;4.30;;;;;;;15.42;78.24;99028.32;115423;1208;22305;-53
2021/08/26 06:30:04;;;;;;;6.20;4.60;;;;;;;15.41;78.30;99036.85;115333;1208;138008;-54
2021/08/26 06:32:32;;;;;;;6.10;4.90;;;;;;;15.40;78.35;99043.23;115393;1207;22326;-53
2021/08/26 06:35:02;;;;;;;8.00;4.30;;;;;;;15.40;78.69;99046.21;115403;1208;22296;-53
2021/08/26 06:37:31;;;;;;;8.70;5.20;;;;;;;15.41;78.99;99051.52;115286;1205;138370;-53
2021/08/26 06:39:59;;;;;;;6.20;4.90;;;;;;;15.41;79.32;99053.54;115393;1208;22336;-55
2021/08/26 06:42:31;;;;;;;8.90;5.20;;;;;;;15.42;79.63;99057.75;115327;1205;138410;-55
2021/08/26 06:45:00;;;;;;;9.10;5.80;;;;;;;15.42;79.59;99059.68;115385;1208;22404;-56
2021/08/26 06:47:28;;;;;;;10.50;5.70;;;;;;;15.42;79.85;99062.31;115538;1209;22355;-56
2021/08/26 06:49:56;;;;;;;10.30;5.10;;;;;;;15.43;80.09;99065.48;115494;1201;137718;-55
2021/08/26 06:52:24;;;;;;;5.70;4.90;;;;;;;15.46;80.20;99071.27;115560;1205;22238;-54
2021/08/26 06:54:52;;;;;;;14.40;5.00;;;;;;;15.46;80.17;99068.96;115430;1201;137874;-54
2021/08/26 06:57:20;;;;;;;13.10;5.90;;;;;;;15.46;80.27;99066.67;115534;1205;22381;-54
2021/08/26 06:59:48;;;;;;;11.40;6.30;;;;;;;15.46;80.53;99068.09;115517;1204;22342;-54
2021/08/26 07:02:17;;;;;;;8.20;6.10;;;;;;;15.47;80.69;99066.22;115407;1205;137729;-54
2021/08/26 07:04:45;;;;;;;14.00;5.80;;;;;;;15.47;80.73;99067.59;115615;1204;22917;-54
2021/08/26 07:07:14;;;;;;;12.60;6.50;;;;;;;15.47;80.82;99072.64;115429;1201;137927;-54
2021/08/26 07:09:42;;;;;;;7.50;5.70;;;;;;;15.48;80.98;99078.73;115587;1204;22239;-54
2021/08/26 07:12:10;;;;;;;10.50;5.50;;;;;;;15.49;81.11;99078.70;115539;1201;138769;-54
2021/08/26 07:14:39;;;;;;;8.50;5.60;;;;;;;15.50;81.13;99082.59;115608;1203;22256;-54
2021/08/26 07:17:07;;;;;;;7.40;5.40;;;;;;;15.50;81.26;99083.80;115535;1209;22406;-54
2021/08/26 07:19:35;;;;;;;6.40;5.60;;;;;;;15.52;81.40;99086.45;115442;1202;137616;-54
2021/08/26 07:22:03;;;;;;;10.60;5.60;;;;;;;15.54;81.52;99084.23;115567;1205;22327;-54
2021/08/26 07:24:31;;;;;;;8.50;5.90;;;;;;;15.55;81.45;99088.91;115452;1203;138383;-54
2021/08/26 07:26:59;;;;;;;12.80;6.20;;;;;;;15.57;81.59;99090.20;115595;1205;23237;-54
2021/08/26 07:29:27;;;;;;;8.10;6.40;;;;;;;15.59;81.62;99089.49;115557;1205;22339;-54
2021/08/26 07:31:56;;;;;;;9.40;5.80;;;;;;;15.59;81.66;99088.00;115452;1201;137524;-54
2021/08/26 07:34:24;;;;;;;10.80;6.30;;;;;;;15.62;81.61;99084.49;115549;1211;22781;-54
2021/08/26 07:36:52;;;;;;;8.40;6.40;;;;;;;15.63;81.62;99081.22;115525;1202;137712;-54
2021/08/26 07:39:20;;;;;;;9.00;6.50;;;;;;;15.65;81.43;99077.37;115613;1205;22364;-54
2021/08/26 07:41:49;;;;;;;9.00;6.30;;;;;;;15.65;81.46;99071.66;115602;1209;22317;-54
2021/08/26 07:44:17;;;;;;;8.70;6.60;;;;;;;15.66;81.38;99079.27;115404;1201;137582;-54
2021/08/26 07:46:45;;;;;;;9.70;7.10;;;;;;;15.66;81.35;99085.25;115600;1205;22402;-54
2021/08/26 07:49:13;;;;;;;6.80;6.10;;;;;;;15.65;81.37;99089.82;115489;1201;137879;-54
2021/08/26 07:51:41;;;;;;;11.80;5.90;;;;;;;15.65;81.51;99092.47;115584;1210;22228;-54
2021/08/26 07:54:09;;;;;;;6.70;6.00;;;;;;;15.65;81.48;99088.69;115503;1202;137775;-55
2021/08/26 07:56:38;;;;;;;8.60;5.70;;;;;;;15.64;81.55;99086.60;115546;1203;23413;-54
2021/08/26 07:59:06;;;;;;;6.90;6.30;;;;;;;15.63;81.48;99084.20;115648;1205;23046;-54
2021/08/26 08:01:34;;;;;;;7.70;5.40;;;;;;;15.64;81.60;99085.63;115446;1201;138783;-55
2021/08/26 08:04:03;;;;;;;8.30;5.80;;;;;;;15.64;81.69;99084.69;115556;1206;22319;-55
2021/08/26 08:06:31;;;;;;;6.60;5.00;;;;;;;15.65;81.65;99079.40;115422;1202;137655;-55
2021/08/26 08:09:01;;;;;;;5.40;4.60;;;;;;;15.65;81.79;99074.73;115629;1205;22327;-54
2021/08/26 08:11:29;;;;;;;4.90;4.40;;;;;;;15.67;81.87;99071.61;115558;1211;22972;-55
2021/08/26 08:14:02;;;;;;;6.50;4.70;;;;;;;15.68;81.94;99074.40;115389;1201;137692;-54
2021/08/26 08:16:31;;;;;;;7.60;4.80;;;;;;;15.72;81.95;99081.36;115647;1205;23127;-55
2021/08/26 08:18:59;;;;;;;4.50;3.80;;;;;;;15.75;81.87;99083.98;115358;1201;138101;-55
2021/08/26 08:21:27;;;;;;;4.00;3.60;;;;;;;15.77;81.66;99084.93;115489;1205;22353;-55
2021/08/26 08:23:55;;;;;;;5.70;3.90;;;;;;;15.73;81.26;99079.62;115612;1205;23068;-54
2021/08/26 08:26:23;;;;;;;5.60;4.10;;;;;;;15.71;81.32;99081.05;115320;1201;137415;-54
2021/08/26 08:28:51;;;;;;;5.80;4.50;;;;;;;15.71;81.35;99085.55;115582;1205;22960;-54
2021/08/26 08:31:19;;;;;;;5.40;4.10;;;;;;;15.72;81.32;99087.14;115487;1201;137581;-54
2021/08/26 08:33:48;;;;;;;7.00;4.80;;;;;;;15.69;81.21;99087.40;115620;1205;22304;-54
2021/08/26 08:36:19;;;;;;;5.80;5.10;;;;;;;15.66;81.27;99086.30;115424;1201;137871;-54
2021/08/26 08:38:48;;;;;;;5.20;4.40;;;;;;;15.63;81.39;99085.14;115592;1205;23121;-55
2021/08/26 08:41:17;;;;;;;7.60;4.80;;;;;;;15.63;81.36;99088.04;112185;1209;24237;-53
2021/08/26 08:43:46;;;;;;;5.00;4.40;;;;;;;15.63;81.47;99087.83;115405;1202;138999;-54
2021/08/26 08:46:14;;;;;;;5.80;4.50;;;;;;;15.64;81.70;99091.65;115561;1205;22355;-53
2021/08/26 08:48:42;;;;;;;6.40;4.60;;;;;;;15.66;81.71;99090.86;115366;1205;137861;-53
2021/08/26 08:51:13;;;;;;;4.50;4.10;;;;;;;15.65;81.54;99092.79;115543;1205;22128;-54
2021/08/26 08:53:41;;;;;;;5.40;4.70;;;;;;;15.64;81.79;99094.84;115442;1205;22356;-54
2021/08/26 08:56:09;;;;;;;8.00;4.90;;;;;;;15.64;81.77;99098.08;115409;1201;137607;-54
2021/08/26 08:58:38;;;;;;;6.20;4.40;;;;;;;15.65;81.85;99100.81;115582;1205;22150;-54
2021/08/26 09:01:07;;;;;;;4.60;4.20;;;;;;;15.67;81.77;99103.42;115412;1201;138458;-54
2021/08/26 09:03:36;;;;;;;4.20;3.80;;;;;;;15.68;81.76;99100.02;115460;1211;22315;-54
2021/08/26 09:06:05;;;;;;;5.00;3.60;;;;;;;15.67;81.68;99093.85;115403;1205;137743;-55
2021/08/26 09:08:33;;;;;;;8.70;4.30;;;;;;;15.67;81.73;99087.48;115548;1205;22258;-54
2021/08/26 09:11:14;;;;;;;4.60;3.70;;;;;;;15.67;81.85;99077.05;115571;1205;22336;-54
2021/08/26 09:13:44;;;;;;;5.10;3.50;;;;;;;15.68;82.00;99081.54;115466;1201;138117;-54
2021/08/26 09:16:12;;;;;;;4.90;3.90;;;;;;;15.69;81.98;99080.60;115531;1205;22355;-54
2021/08/26 09:18:40;;;;;;;5.90;3.50;;;;;;;15.68;81.88;99082.64;115431;1201;137762;-54
2021/08/26 09:21:11;;;;;;;6.60;3.90;;;;;;;15.62;81.78;99083.44;115607;1205;22932;-54
2021/08/26 09:23:53;;;;;;;4.50;3.70;;;;;;;15.58;81.84;99089.95;115575;1210;22260;-54
2021/08/26 09:26:25;;;;;;;4.40;3.70;;;;;;;15.55;81.90;99091.27;115458;1200;137722;-54
2021/08/26 09:28:54;;;;;;;4.00;3.50;;;;;;;15.54;82.11;99096.09;115513;1211;22340;-54
2021/08/26 09:31:24;;;;;;;5.70;3.80;;;;;;;15.50;82.12;99092.90;115408;1205;138132;-54
2021/08/26 09:34:03;;;;;;;7.90;4.10;;;;;;;15.47;82.23;99092.14;115557;1205;22330;-54
2021/08/26 09:36:47;;;;;;;7.40;4.20;;;;;;;15.47;82.52;99088.90;115474;1202;137907;-54
2021/08/26 09:39:18;;;;;;;6.70;3.90;;;;;;;15.48;82.74;99087.02;115591;1205;22377;-54
2021/08/26 09:42:12;;;;;;;4.10;3.70;;;;;;;15.48;82.63;99092.61;115621;1205;22159;-54
2021/08/26 09:44:40;;;;;;;6.00;3.80;;;;;;;15.50;82.48;99088.90;115478;1200;137639;-54
2021/08/26 09:47:12;;;;;;;4.70;3.90;;;;;;;15.50;82.49;99081.77;115467;1210;23473;-54
2021/08/26 09:49:41;;;;;;;5.30;4.70;;;;;;;15.52;82.67;99079.10;115500;1201;137658;-54
2021/08/26 09:52:10;;;;;;;4.60;3.70;;;;;;;15.54;82.72;99074.14;115558;1204;23126;-54
2021/08/26 09:54:42;;;;;;;3.70;3.40;;;;;;;15.53;82.53;99072.92;115437;1201;138702;-54
2021/08/26 09:57:39;;;;;;;4.60;3.70;;;;;;;15.53;82.44;99076.17;115624;1211;22351;-55
2021/08/26 10:00:08;;;;;;;3.70;3.30;;;;;;;15.50;82.60;99078.79;115528;1205;22970;-54
2021/08/26 10:02:47;;;;;;;5.80;3.20;;;;;;;15.47;82.69;99070.44;115445;1201;138079;-54
2021/08/26 10:05:15;;;;;;;3.70;2.60;;;;;;;15.45;82.88;99069.27;115588;1205;22372;-54
2021/08/26 10:07:45;;;;;;;2.90;2.50;;;;;;;15.42;82.87;99065.02;115364;1201;138163;-54
2021/08/26 10:10:14;;;;;;;2.50;2.30;;;;;;;15.39;83.10;99063.63;115447;1211;22301;-53
2021/08/26 10:12:42;;;;;;;2.60;2.30;;;;;;;15.37;82.90;99064.03;115406;1201;137926;-53
2021/08/26 10:15:10;;;;;;;3.70;2.80;;;;;;;15.35;82.65;99068.02;115512;1205;22308;-53
2021/08/26 10:17:38;;;;;;;4.50;2.80;;;;;;;15.34;82.68;99062.71;115503;1205;22304;-53
2021/08/26 10:20:07;;;;;;;3.10;2.80;;;;;;;15.36;82.92;99064.48;115457;1201;138044;-53
2021/08/26 10:22:35;;;;;;;3.50;3.20;;;;;;;15.39;83.09;99070.48;115421;1209;22296;-53
2021/08/26 10:25:03;;;;;;;3.00;2.70;;;;;;;15.42;82.91;99076.20;115458;1200;137591;-53
2021/08/26 10:27:32;;;;;;;3.30;2.80;;;;;;;15.44;82.84;99076.75;115623;1210;22363;-53
2021/08/26 10:30:00;;;;;;;2.70;2.50;;;;;;;15.47;83.02;99077.24;115618;1205;22252;-54
2021/08/26 10:32:29;;;;;;;3.50;3.20;;;;;;;15.50;82.94;99079.18;115466;1202;137858;-53
2021/08/26 10:35:08;;;;;;;3.50;3.10;;;;;;;15.53;82.75;99076.63;115562;1205;22335;-54
2021/08/26 10:37:55;;;;;;;2.90;2.20;;;;;;;15.58;82.51;99081.23;115519;1200;137666;-53
2021/08/26 10:40:32;;;;;;;2.70;2.30;;;;;;;15.57;82.39;99080.86;115576;1205;22309;-54
2021/08/26 10:43:05;;;;;;;4.80;2.70;;;;;;;15.54;82.36;99081.38;115344;1201;138692;-54
2021/08/26 10:45:50;;;;;;;3.20;2.90;;;;;;;15.51;82.47;99075.92;115473;1206;22099;-54
2021/08/26 10:48:20;;;;;;;3.90;2.70;;;;;;;15.49;82.52;99070.03;115549;1205;22367;-53
2021/08/26 10:51:09;;;;;;;3.10;2.80;;;;;;;15.45;82.58;99067.17;115464;1205;137660;-55
2021/08/26 10:53:40;;;;;;;4.10;2.90;;;;;;;15.41;82.50;99060.67;115619;1205;22311;-54
2021/08/26 10:56:25;;;;;;;3.30;3.00;;;;;;;15.40;82.55;99064.42;115368;1201;138709;-54
2021/08/26 10:58:59;;;;;;;3.30;2.80;;;;;;;15.40;82.55;99065.14;115598;1205;22921;-54
2021/08/26 11:01:28;;;;;;;4.60;2.40;;;;;;;15.43;82.69;99059.11;115378;1201;138136;-54
2021/08/26 11:04:17;;;;;;;8.00;2.90;;;;;;;15.44;82.57;99054.78;115625;1205;22304;-54
2021/08/26 11:06:45;;;;;;;5.70;2.80;;;;;;;15.44;82.21;99055.61;115429;1201;137786;-54
2021/08/26 11:09:21;;;;;;;3.80;2.90;;;;;;;15.43;82.18;99055.44;115508;1205;22230;-54
2021/08/26 11:11:57;;;;;;;3.80;3.40;;;;;;;15.43;82.20;99060.86;115577;1204;23439;-53
2021/08/26 11:14:27;;;;;;;4.00;3.20;;;;;;;15.49;82.43;99058.99;115362;1201;138239;-53
2021/08/26 11:16:56;;;;;;;4.30;2.90;;;;;;;15.55;82.49;99053.20;115480;1205;23064;-53
2021/08/26 11:19:24;;;;;;;5.40;3.10;;;;;;;15.61;82.09;99052.21;115524;1202;137549;-52
2021/08/26 11:21:57;;;;;;;3.60;3.00;;;;;;;15.64;81.93;99048.32;115529;1205;23095;-54
2021/08/26 11:24:27;;;;;;;5.00;3.30;;;;;;;15.67;81.91;99052.06;115590;1204;23026;-53
2021/08/26 11:27:15;;;;;;;3.70;3.00;;;;;;;15.66;81.97;99047.41;115408;1201;137455;-53
2021/08/26 11:29:48;;;;;;;4.00;3.20;;;;;;;15.65;81.88;99047.42;115558;1204;22320;-53
2021/08/26 11:32:16;;;;;;;3.70;2.90;;;;;;;15.67;82.17;99043.88;115494;1202;137625;-53
2021/08/26 11:34:55;;;;;;;4.20;3.50;;;;;;;15.71;81.93;99038.20;115604;1205;23014;-53
2021/08/26 11:37:25;;;;;;;3.80;3.40;;;;;;;15.73;81.70;99033.47;115515;1200;138527;-53
2021/08/26 11:40:13;;;;;;;3.70;3.40;;;;;;;15.77;81.79;99028.84;115563;1205;22335;-53
2021/08/26 11:42:49;;;;;;;4.20;3.30;;;;;;;15.79;81.59;99031.16;115462;1201;138141;-53